Time;durP1;ratioP1;P1;durP2;ratioP2;P2;SDS_P1;SDS_P2;PMS_P1;PMS_P2;Temp;Humidity;BMP_temperature;BMP_pressure;BME280_temperature;BME280_humidity;BME280_pressure;Samples;Min_cycle;Max_cycle;Signal;HPM_P1;HPM_P2
2022/11/30 00:00:29;;;;;;;28.63;20.23;;;3.40;99.90;;;2.27;100.00;101700.16;4219073;28;20093;-75
2022/11/30 00:02:30;;;;;;;28.88;19.33;;;3.40;99.90;;;2.35;100.00;101708.44;4220214;28;20043;-75
2022/11/30 00:04:31;;;;;;;31.27;22.02;;;3.40;99.90;;;2.30;100.00;101702.59;4219713;28;20036;-75
2022/11/30 00:06:32;;;;;;;32.55;22.33;;;3.40;99.90;;;2.27;100.00;101699.34;4218962;28;20042;-75
2022/11/30 00:08:33;;;;;;;29.63;21.70;;;3.30;99.90;;;2.22;100.00;101702.16;4218713;28;20032;-74
2022/11/30 00:10:34;;;;;;;32.40;23.42;;;3.30;99.90;;;2.11;100.00;101694.91;4220114;28;20430;-75
2022/11/30 00:12:35;;;;;;;32.92;21.98;;;3.30;99.90;;;2.07;100.00;101702.94;4220013;28;20024;-75
2022/11/30 00:14:35;;;;;;;29.63;21.17;;;3.20;99.90;;;2.07;100.00;101702.94;4201946;28;20585;-75
2022/11/30 00:16:36;;;;;;;35.58;23.02;;;3.20;99.90;;;2.02;100.00;101694.53;4219774;28;20031;-74
2022/11/30 00:18:38;;;;;;;33.65;21.38;;;3.10;99.90;;;2.03;100.00;101697.06;4218647;28;20020;-75
2022/11/30 00:20:38;;;;;;;30.77;21.20;;;3.10;99.90;;;2.00;100.00;101686.81;4219913;28;20028;-75
2022/11/30 00:22:40;;;;;;;37.05;23.08;;;3.10;99.90;;;2.01;100.00;101698.06;4218041;28;20580;-75
2022/11/30 00:24:41;;;;;;;30.73;20.27;;;3.10;99.90;;;2.03;100.00;101689.25;4217721;28;20035;-75
2022/11/30 00:26:42;;;;;;;32.35;20.08;;;3.10;99.90;;;2.06;100.00;101696.09;4218481;28;20035;-75
2022/11/30 00:28:44;;;;;;;26.95;18.95;;;3.10;99.90;;;2.08;100.00;101699.44;4219828;28;20368;-74
2022/11/30 00:30:55;;;;;;;30.25;19.45;;;3.10;99.90;;;2.08;100.00;101695.06;4252305;27;20022;-75
2022/11/30 00:32:56;;;;;;;29.85;19.85;;;3.10;99.90;;;2.11;100.00;101700.13;4219461;28;20031;-74
2022/11/30 00:34:57;;;;;;;25.70;18.08;;;3.10;99.90;;;2.06;100.00;101683.88;4219548;28;20060;-74
2022/11/30 00:36:58;;;;;;;33.10;20.58;;;3.10;99.90;;;2.14;100.00;101702.56;4219449;28;20053;-75
2022/11/30 00:38:59;;;;;;;27.23;19.30;;;3.20;99.90;;;2.19;100.00;101703.16;4217109;28;20031;-74
2022/11/30 00:41:01;;;;;;;28.38;18.42;;;3.20;99.90;;;2.32;100.00;101694.72;4217567;28;20032;-75
2022/11/30 00:43:02;;;;;;;27.17;19.38;;;3.30;99.90;;;2.40;100.00;101700.34;4218417;28;20465;-75
2022/11/30 00:45:03;;;;;;;29.55;21.42;;;3.40;99.90;;;2.54;100.00;101697.91;4219568;28;20115;-75
2022/11/30 00:47:04;;;;;;;28.02;19.42;;;3.50;99.90;;;2.57;100.00;101698.53;4219487;28;20020;-75
2022/11/30 00:49:05;;;;;;;29.75;19.80;;;3.60;99.90;;;2.67;100.00;101711.94;4219133;28;20028;-74
2022/11/30 00:51:08;;;;;;;31.13;18.20;;;3.70;99.90;;;2.75;100.00;101704.53;4219559;28;20027;-74
2022/11/30 00:53:09;;;;;;;42.35;18.92;;;3.80;99.90;;;2.79;100.00;101688.66;4218498;28;20566;-74
2022/11/30 00:55:10;;;;;;;27.95;18.05;;;3.80;99.90;;;2.97;100.00;101706.81;4219459;28;20035;-75
2022/11/30 00:57:11;;;;;;;28.38;17.75;;;3.90;99.90;;;3.03;100.00;101709.09;4219257;28;20036;-75
2022/11/30 00:59:12;;;;;;;31.02;16.45;;;4.00;99.90;;;3.12;100.00;101709.44;4219456;28;20027;-75
2022/11/30 01:01:13;;;;;;;35.58;15.82;;;4.10;99.90;;;3.14;100.00;101710.19;4219519;28;20020;-75
2022/11/30 01:03:15;;;;;;;27.20;16.27;;;4.20;99.90;;;3.22;100.00;101708.00;4219136;28;20031;-75
2022/11/30 01:05:15;;;;;;;32.85;17.13;;;4.20;99.90;;;3.31;100.00;101711.88;4217773;28;20032;-75
2022/11/30 01:07:16;;;;;;;26.27;15.27;;;4.30;99.90;;;3.32;100.00;101708.31;4219293;28;20075;-75
2022/11/30 01:09:17;;;;;;;19.73;13.85;;;4.30;99.90;;;3.38;100.00;101718.41;4219370;28;20058;-75
2022/11/30 01:11:25;;;;;;;23.48;14.82;;;4.40;99.90;;;3.42;100.00;101703.41;4217815;28;20092;-75
2022/11/30 01:13:26;;;;;;;18.38;12.82;;;4.40;99.90;;;3.49;100.00;101705.63;4217772;28;20086;-75
2022/11/30 01:15:27;;;;;;;20.05;14.35;;;4.50;99.90;;;3.52;100.00;101707.19;4218073;28;20428;-75
2022/11/30 01:17:28;;;;;;;19.75;13.23;;;4.50;99.90;;;3.58;100.00;101706.84;4219097;28;20028;-75
2022/11/30 01:19:29;;;;;;;25.45;13.80;;;4.50;99.90;;;3.59;100.00;101708.50;4216632;28;20480;-75
2022/11/30 01:21:30;;;;;;;21.23;13.25;;;4.60;99.90;;;3.62;100.00;101708.34;4218642;28;20032;-75
2022/11/30 01:23:31;;;;;;;18.15;12.63;;;4.60;99.90;;;3.62;100.00;101705.72;4219107;28;20035;-75
2022/11/30 01:25:32;;;;;;;18.63;11.45;;;4.60;99.90;;;3.65;100.00;101705.56;4219099;28;20039;-75
2022/11/30 01:27:33;;;;;;;30.92;13.48;;;4.70;99.90;;;3.67;100.00;101703.72;4217835;28;20410;-75
2022/11/30 01:29:34;;;;;;;22.60;13.50;;;4.70;99.90;;;3.68;100.00;101708.84;4218834;28;20028;-75
2022/11/30 01:31:35;;;;;;;14.07;11.40;;;4.70;99.90;;;3.73;100.00;101708.59;4219121;28;20031;-75
2022/11/30 01:33:37;;;;;;;14.95;11.63;;;4.70;99.90;;;3.75;100.00;101709.31;4218629;28;20024;-75
2022/11/30 01:35:37;;;;;;;20.20;13.02;;;4.80;99.90;;;3.76;100.00;101709.22;4217381;28;20028;-75
2022/11/30 01:37:38;;;;;;;17.17;12.15;;;4.80;99.90;;;3.80;100.00;101715.09;4218808;28;20070;-75
2022/11/30 01:39:39;;;;;;;14.68;11.00;;;4.80;99.90;;;3.82;100.00;101708.03;4218821;28;20028;-75
2022/11/30 01:41:40;;;;;;;30.52;13.38;;;4.80;99.90;;;3.86;100.00;101709.53;4217681;28;20400;-75
2022/11/30 01:43:52;;;;;;;16.85;12.15;;;4.80;99.90;;;3.89;100.00;101714.56;4217542;28;20035;-75
2022/11/30 01:45:53;;;;;;;35.10;14.88;;;4.90;99.90;;;3.94;100.00;101720.38;4218142;28;20020;-75
2022/11/30 01:47:56;;;;;;;21.02;12.45;;;4.90;99.90;;;3.94;100.00;101709.94;4251177;27;20515;-75
2022/11/30 01:50:22;;;;;;;17.15;13.02;;;4.90;99.90;;;3.98;100.00;101706.19;4218440;28;20111;-75
2022/11/30 01:52:36;;;;;;;17.13;12.15;;;4.90;99.90;;;4.01;100.00;101713.00;4217272;28;20040;-75
2022/11/30 01:54:55;;;;;;;14.25;11.48;;;5.00;99.90;;;4.00;100.00;101700.91;4218190;28;20084;-75
2022/11/30 01:57:04;;;;;;;23.10;13.45;;;5.00;99.90;;;4.06;100.00;101714.41;4217510;28;20116;-75
2022/11/30 01:59:05;;;;;;;17.80;12.18;;;5.10;99.90;;;4.08;100.00;101711.72;4217460;28;20438;-75
2022/11/30 02:01:06;;;;;;;19.98;13.20;;;5.10;99.90;;;4.09;100.00;101706.41;4217466;28;20034;-75
2022/11/30 02:03:37;;;;;;;16.20;11.60;;;5.10;99.90;;;4.12;100.00;101714.06;4218239;28;20024;-75
2022/11/30 02:05:40;;;;;;;17.85;12.25;;;5.10;99.90;;;4.16;100.00;101718.16;4217814;28;20085;-75
2022/11/30 02:07:41;;;;;;;15.60;12.07;;;5.10;99.90;;;4.15;100.00;101710.44;4218595;28;20471;-75
2022/11/30 02:09:44;;;;;;;16.27;12.48;;;5.20;99.90;;;4.22;100.00;101712.59;4217388;28;20020;-75
2022/11/30 02:11:45;;;;;;;17.15;12.70;;;5.20;99.90;;;4.18;100.00;101698.03;4234095;28;20030;-75
2022/11/30 02:14:10;;;;;;;16.75;11.50;;;5.20;99.90;;;4.30;100.00;101712.94;4218511;28;20566;-75
2022/11/30 02:16:36;;;;;;;14.50;11.05;;;5.30;99.90;;;4.33;100.00;101704.94;4218659;28;20398;-75
2022/11/30 02:18:52;;;;;;;16.02;11.65;;;5.30;99.90;;;4.37;100.00;101722.13;4217318;28;20095;-75
2022/11/30 02:21:12;;;;;;;15.70;11.70;;;5.40;99.90;;;4.40;100.00;101711.47;4218444;28;20483;-75
2022/11/30 02:23:49;;;;;;;16.67;12.00;;;5.40;99.90;;;4.39;100.00;101707.19;4216917;28;20044;-74
2022/11/30 02:26:06;;;;;;;19.02;12.60;;;5.40;99.90;;;4.44;100.00;101712.97;4217604;28;20032;-75
2022/11/30 02:28:42;;;;;;;15.38;11.73;;;5.40;99.90;;;4.47;100.00;101720.63;4217099;28;20427;-75
2022/11/30 02:30:49;;;;;;;16.75;11.38;;;5.50;99.90;;;4.52;100.00;101720.34;4218364;28;20044;-74
2022/11/30 02:33:06;;;;;;;15.82;12.30;;;5.50;99.90;;;4.57;100.00;101713.06;4217105;28;20036;-74
2022/11/30 02:35:08;;;;;;;20.17;13.35;;;5.50;99.90;;;4.59;100.00;101718.19;4218469;28;20028;-74
2022/11/30 02:37:12;;;;;;;14.55;11.70;;;5.60;99.90;;;4.60;100.00;101714.66;4200365;28;20034;-74
2022/11/30 02:39:13;;;;;;;22.77;12.70;;;5.60;99.90;;;4.61;100.00;101719.78;4212647;28;20047;-75
2022/11/30 02:41:14;;;;;;;24.33;12.63;;;5.60;99.90;;;4.60;100.00;101715.47;4218087;28;20020;-75
2022/11/30 02:43:17;;;;;;;19.15;13.90;;;5.60;99.90;;;4.67;100.00;101718.56;4217066;28;20074;-75
2022/11/30 02:45:33;;;;;;;18.02;12.77;;;5.60;99.90;;;4.65;100.00;101703.00;4216978;28;20017;-75
2022/11/30 02:47:40;;;;;;;17.30;12.50;;;5.70;99.90;;;4.73;100.00;101713.81;4236133;28;20040;-75
2022/11/30 02:50:14;;;;;;;20.30;12.80;;;5.70;99.90;;;4.77;100.00;101714.47;4220134;28;20032;-75
2022/11/30 02:52:18;;;;;;;14.48;11.38;;;5.70;99.90;;;4.81;100.00;101723.75;4195335;28;20088;-75
2022/11/30 02:54:19;;;;;;;14.05;11.75;;;5.80;99.90;;;4.83;100.00;101708.84;4219737;28;20479;-75
2022/11/30 02:56:21;;;;;;;18.50;12.82;;;5.80;99.90;;;4.81;100.00;101706.31;4220119;28;20042;-75
2022/11/30 02:58:21;;;;;;;16.83;12.68;;;5.80;99.90;;;4.88;100.00;101712.00;4220133;28;20032;-75
2022/11/30 03:00:22;;;;;;;15.55;11.82;;;5.90;99.90;;;4.94;100.00;101711.63;4221146;28;20020;-75
2022/11/30 03:02:23;;;;;;;18.77;12.50;;;5.90;99.90;;;4.99;100.00;101715.63;4221181;28;20036;-75
2022/11/30 03:04:24;;;;;;;25.88;13.88;;;6.00;99.90;;;5.03;100.00;101713.66;4220951;28;20388;-75
2022/11/30 03:06:25;;;;;;;20.77;13.20;;;6.00;99.90;;;5.07;100.00;101709.94;4220078;28;20062;-75
2022/11/30 03:08:26;;;;;;;20.20;14.00;;;6.10;99.90;;;5.09;100.00;101713.28;4221052;28;20021;-75
2022/11/30 03:10:27;;;;;;;17.38;12.98;;;6.10;99.90;;;5.11;100.00;101710.56;4203012;28;20024;-75
2022/11/30 03:12:28;;;;;;;18.52;13.82;;;6.10;99.90;;;5.16;100.00;101714.56;4221023;28;20020;-75
2022/11/30 03:14:29;;;;;;;17.25;12.60;;;6.20;99.90;;;5.21;100.00;101724.72;4220972;28;20077;-75
2022/11/30 03:16:30;;;;;;;17.38;12.25;;;6.20;99.90;;;5.22;100.00;101722.03;4220883;28;20028;-75
2022/11/30 03:18:32;;;;;;;24.98;13.27;;;6.20;99.90;;;5.30;100.00;101719.75;4218583;28;20028;-75
2022/11/30 03:20:33;;;;;;;21.38;14.40;;;6.30;99.90;;;5.33;100.00;101722.19;4220920;28;20070;-75
2022/11/30 03:22:33;;;;;;;19.80;13.45;;;6.30;99.90;;;5.36;100.00;101721.97;4219495;28;20044;-74
2022/11/30 03:24:34;;;;;;;23.20;15.10;;;6.30;99.90;;;5.39;100.00;101713.94;4219549;28;20024;-75
2022/11/30 03:26:35;;;;;;;20.92;13.70;;;6.40;99.90;;;5.46;100.00;101715.22;4220872;28;20123;-75
2022/11/30 03:28:37;;;;;;;32.00;16.25;;;6.50;99.90;;;5.53;100.00;101721.72;4220884;28;20040;-75
2022/11/30 03:30:38;;;;;;;29.30;15.45;;;6.50;99.90;;;5.57;100.00;101719.75;4220770;28;20031;-75
2022/11/30 03:32:39;;;;;;;27.55;15.55;;;6.50;99.90;;;5.64;100.00;101726.28;4219486;28;20032;-75
2022/11/30 03:34:40;;;;;;;34.50;16.77;;;6.60;99.90;;;5.70;100.00;101725.03;4252950;27;20076;-75
2022/11/30 03:36:41;;;;;;;22.88;14.05;;;6.70;99.90;;;5.71;100.00;101721.44;4220753;28;20062;-75
2022/11/30 03:38:41;;;;;;;54.35;20.08;;;6.70;99.90;;;5.74;100.00;101713.38;4219480;28;20091;-75
2022/11/30 03:40:42;;;;;;;47.03;19.60;;;6.70;99.90;;;5.77;100.00;101723.66;4220599;28;20036;-75
2022/11/30 03:42:43;;;;;;;68.32;18.05;;;6.80;99.90;;;5.80;100.00;101720.84;4219209;28;20031;-75
2022/11/30 03:44:44;;;;;;;32.70;16.77;;;6.80;99.90;;;5.88;100.00;101734.31;4218850;28;20040;-75
2022/11/30 03:46:45;;;;;;;30.02;15.80;;;6.80;99.90;;;5.90;100.00;101725.41;4220549;28;20089;-75
2022/11/30 03:48:46;;;;;;;32.60;15.55;;;6.90;99.90;;;5.89;100.00;101725.50;4218995;28;20027;-75
2022/11/30 03:50:48;;;;;;;33.05;16.15;;;6.90;99.90;;;5.92;100.00;101726.13;4220273;28;20089;-75
2022/11/30 03:52:49;;;;;;;30.92;16.17;;;6.90;99.90;;;5.93;100.00;101730.44;4220693;28;20024;-75
2022/11/30 03:54:50;;;;;;;31.67;16.52;;;6.90;99.90;;;5.96;100.00;101729.41;4218628;28;20031;-75
2022/11/30 03:56:51;;;;;;;28.05;15.27;;;7.00;99.90;;;6.02;100.00;101726.38;4220444;28;20031;-75
2022/11/30 03:58:52;;;;;;;30.67;15.07;;;7.00;99.90;;;6.00;100.00;101726.47;4218751;28;20028;-75
2022/11/30 04:01:16;;;;;;;32.30;16.75;;;7.00;99.90;;;6.05;100.00;101727.00;4219275;28;20027;-75
2022/11/30 04:03:17;;;;;;;29.77;15.95;;;7.00;99.90;;;6.04;100.00;101727.94;4220113;28;20036;-75
2022/11/30 04:05:21;;;;;;;34.03;16.08;;;7.10;99.90;;;6.06;100.00;101735.72;4220012;28;20036;-75
2022/11/30 04:07:22;;;;;;;26.77;15.55;;;7.10;99.90;;;6.10;100.00;101738.00;4220660;28;20161;-75
2022/11/30 04:09:22;;;;;;;37.13;16.23;;;7.10;99.90;;;6.10;100.00;101738.00;4218673;28;20436;-75
2022/11/30 04:11:23;;;;;;;33.70;14.98;;;7.10;99.90;;;6.10;100.00;101738.00;4235819;28;20533;-74
2022/11/30 04:13:25;;;;;;;29.50;15.05;;;7.10;99.90;;;6.07;100.00;101738.22;4218684;28;20066;-75
2022/11/30 04:15:26;;;;;;;33.72;15.20;;;7.10;99.90;;;6.12;100.00;101745.78;4218755;28;20621;-75
2022/11/30 04:17:27;;;;;;;31.42;16.42;;;7.10;99.90;;;6.11;100.00;101738.84;4220135;28;20036;-75
2022/11/30 04:19:28;;;;;;;40.50;16.52;;;7.10;99.90;;;6.10;100.00;101737.16;4218780;28;20036;-75
2022/11/30 04:21:29;;;;;;;29.77;14.40;;;7.10;99.90;;;6.09;100.00;101732.88;4219579;28;20033;-75
2022/11/30 04:23:35;;;;;;;25.52;14.43;;;7.10;99.90;;;6.06;100.00;101722.63;4218906;28;20028;-75
2022/11/30 04:25:40;;;;;;;27.38;14.27;;;7.10;99.90;;;6.09;100.00;101728.47;4218478;28;20028;-75
2022/11/30 04:27:45;;;;;;;46.55;15.98;;;7.10;99.90;;;6.11;100.00;101739.69;4218699;28;20056;-74
2022/11/30 04:29:46;;;;;;;28.88;15.50;;;7.20;99.90;;;6.09;100.00;101735.50;4218654;28;20034;-74
2022/11/30 04:31:47;;;;;;;31.25;15.60;;;7.10;99.90;;;6.05;100.00;101732.25;4220108;28;20024;-75
2022/11/30 04:33:53;;;;;;;28.40;14.93;;;7.20;99.90;;;6.07;100.00;101740.00;4218360;28;20024;-75
2022/11/30 04:35:57;;;;;;;26.08;14.48;;;7.10;99.90;;;6.05;100.00;101727.00;4218356;28;20024;-75
2022/11/30 04:38:00;;;;;;;35.38;15.07;;;7.10;99.90;;;6.05;100.00;101740.09;4235296;27;20509;-75
2022/11/30 04:40:01;;;;;;;28.90;13.43;;;7.10;99.90;;;6.10;100.00;101734.53;4218547;28;20016;-75
2022/11/30 04:42:02;;;;;;;29.98;13.68;;;7.10;99.90;;;6.07;100.00;101732.13;4218419;28;20434;-75
2022/11/30 04:44:03;;;;;;;25.27;12.32;;;7.10;99.90;;;6.06;100.00;101736.53;4252033;27;20054;-75
2022/11/30 04:46:05;;;;;;;28.98;13.25;;;7.10;99.90;;;6.07;100.00;101742.59;4218641;28;20024;-75
2022/11/30 04:48:07;;;;;;;24.52;13.05;;;7.10;99.90;;;6.07;100.00;101750.47;4218256;28;20031;-75
2022/11/30 04:50:09;;;;;;;24.70;11.75;;;7.10;99.90;;;6.03;100.00;101743.78;4201664;28;20056;-75
2022/11/30 04:52:10;;;;;;;21.10;11.45;;;7.10;99.90;;;6.04;100.00;101742.81;4219455;28;20053;-75
2022/11/30 04:54:10;;;;;;;21.90;10.77;;;7.10;99.90;;;6.05;100.00;101739.25;4218338;28;20028;-75
2022/11/30 04:56:11;;;;;;;23.23;12.05;;;7.10;99.90;;;6.03;100.00;101735.91;4218209;28;20032;-75
2022/11/30 04:58:12;;;;;;;24.98;12.40;;;7.10;99.90;;;6.05;100.00;101745.34;4218281;28;20586;-75
2022/11/30 05:00:16;;;;;;;20.73;11.00;;;7.10;99.90;;;6.05;100.00;101740.09;4218074;28;20028;-75
2022/11/30 05:02:17;;;;;;;19.58;11.05;;;7.10;99.90;;;6.07;100.00;101748.69;4219012;28;20135;-75
2022/11/30 05:04:18;;;;;;;23.45;11.45;;;7.10;99.90;;;6.08;100.00;101744.28;4217816;28;20020;-75
2022/11/30 05:06:18;;;;;;;22.17;11.52;;;7.10;99.90;;;6.09;100.00;101746.78;4219254;28;20077;-75
2022/11/30 05:08:19;;;;;;;26.13;12.68;;;7.10;99.90;;;6.07;100.00;101732.97;4219130;28;20035;-75
2022/11/30 05:10:20;;;;;;;25.15;12.02;;;7.10;99.90;;;6.08;100.00;101739.06;4218347;28;20031;-75
2022/11/30 05:12:21;;;;;;;24.23;11.98;;;7.10;99.90;;;6.08;100.00;101739.91;4201092;28;20034;-75
2022/11/30 05:14:22;;;;;;;28.30;13.48;;;7.10;99.90;;;6.10;100.00;101745.03;4218017;28;20097;-75
2022/11/30 05:16:23;;;;;;;28.13;12.48;;;7.10;99.90;;;6.09;100.00;101741.56;4219009;28;20028;-75
2022/11/30 05:18:24;;;;;;;31.27;14.55;;;7.10;99.90;;;6.05;100.00;101744.50;4217797;28;20024;-75
2022/11/30 05:20:27;;;;;;;24.67;12.65;;;7.10;99.90;;;6.07;100.00;101740.00;4217859;28;20028;-75
2022/11/30 05:22:28;;;;;;;25.83;12.00;;;7.10;99.90;;;6.02;100.00;101742.94;4217578;28;20071;-74
2022/11/30 05:24:29;;;;;;;22.50;11.85;;;7.10;99.90;;;6.01;100.00;101745.63;4218835;28;20024;-74
2022/11/30 05:26:30;;;;;;;29.83;11.32;;;7.10;99.90;;;6.01;100.00;101740.41;4218948;28;20047;-75
2022/11/30 05:28:30;;;;;;;22.40;11.20;;;7.10;99.90;;;5.98;100.00;101745.84;4218018;28;20024;-74
2022/11/30 05:30:31;;;;;;;25.73;10.95;;;7.00;99.90;;;5.96;100.00;101750.34;4218919;28;20035;-74
2022/11/30 05:32:32;;;;;;;23.48;10.43;;;7.00;99.90;;;5.94;100.00;101744.38;4218935;28;20016;-74
2022/11/30 05:34:33;;;;;;;21.48;9.48;;;7.00;99.90;;;5.91;100.00;101737.53;4251042;27;20027;-75
2022/11/30 05:36:34;;;;;;;25.52;11.18;;;6.90;99.90;;;5.87;100.00;101730.84;4217631;28;20028;-75
2022/11/30 05:38:35;;;;;;;21.58;10.15;;;6.90;99.90;;;5.92;100.00;101741.84;4200598;28;20166;-75
2022/11/30 05:40:36;;;;;;;25.92;10.88;;;6.90;99.90;;;5.91;100.00;101741.97;4218700;28;20049;-75
2022/11/30 05:42:37;;;;;;;26.08;12.15;;;6.90;99.90;;;5.93;100.00;101730.44;4200534;28;20028;-75
2022/11/30 05:44:37;;;;;;;23.35;13.07;;;6.90;99.90;;;5.91;100.00;101734.94;4217530;28;20059;-75
2022/11/30 05:46:38;;;;;;;23.08;11.90;;;6.90;99.90;;;5.90;100.00;101735.03;4217479;28;20040;-74
2022/11/30 05:48:39;;;;;;;25.60;11.90;;;6.90;99.90;;;5.93;100.00;101740.06;4218450;28;20032;-75
2022/11/30 05:50:40;;;;;;;20.65;10.63;;;6.90;99.90;;;5.89;100.00;101733.34;4217339;28;20028;-75
2022/11/30 05:52:41;;;;;;;28.27;11.43;;;7.00;99.90;;;5.94;100.00;101739.97;4218747;28;20028;-74
2022/11/30 05:54:42;;;;;;;34.97;12.50;;;7.00;99.90;;;5.98;100.00;101746.69;4217371;28;20024;-75
2022/11/30 05:56:43;;;;;;;29.85;11.15;;;6.90;99.90;;;5.88;100.00;101742.16;4217261;28;20024;-74
2022/11/30 05:58:45;;;;;;;26.90;11.55;;;6.90;99.90;;;5.83;100.00;101733.72;4217964;28;20024;-75
2022/11/30 06:00:46;;;;;;;35.08;11.52;;;6.90;99.90;;;5.84;100.00;101736.25;4218598;28;20024;-75
2022/11/30 06:02:47;;;;;;;20.17;10.05;;;6.90;99.90;;;5.87;100.00;101737.88;4218575;28;20380;-74
2022/11/30 06:04:48;;;;;;;24.80;10.30;;;6.90;99.90;;;5.91;100.00;101742.78;4216903;28;20016;-75
2022/11/30 06:06:51;;;;;;;22.95;9.68;;;6.90;99.90;;;5.92;100.00;101744.47;4218356;28;20028;-75
2022/11/30 06:08:52;;;;;;;30.25;10.25;;;6.90;99.90;;;5.95;100.00;101743.44;4215761;28;20012;-75
2022/11/30 06:10:53;;;;;;;27.77;11.55;;;6.90;99.90;;;5.90;100.00;101733.28;4217335;28;20038;-74
2022/11/30 06:12:54;;;;;;;24.30;9.90;;;6.90;99.90;;;5.94;100.00;101741.75;4218459;28;20050;-74
2022/11/30 06:14:55;;;;;;;24.52;11.07;;;6.90;99.90;;;5.92;100.00;101746.25;4218457;28;20446;-74
2022/11/30 06:16:56;;;;;;;20.75;10.38;;;6.90;99.90;;;5.91;100.00;101741.97;4236955;28;20080;-75
2022/11/30 06:18:57;;;;;;;22.05;10.45;;;6.90;99.90;;;5.93;100.00;101745.31;4218137;28;20074;-75
2022/11/30 06:21:07;;;;;;;27.83;10.60;;;7.00;99.90;;;5.97;100.00;101736.31;4219515;28;20372;-74
2022/11/30 06:23:08;;;;;;;26.83;11.07;;;6.90;99.90;;;5.94;100.00;101741.75;4221570;28;20059;-75
2022/11/30 06:25:08;;;;;;;18.42;9.27;;;7.00;99.90;;;5.96;100.00;101745.97;4220643;28;20025;-75
2022/11/30 06:27:09;;;;;;;26.63;10.73;;;7.00;99.90;;;5.98;100.00;101744.06;4220781;28;20066;-75
2022/11/30 06:29:10;;;;;;;19.92;9.77;;;7.00;99.90;;;6.00;100.00;101751.84;4220569;28;20035;-75
2022/11/30 06:31:11;;;;;;;21.95;10.52;;;7.00;99.90;;;5.99;100.00;101742.28;4220128;28;20512;-75
2022/11/30 06:33:12;;;;;;;21.48;10.10;;;7.00;99.90;;;6.00;100.00;101746.59;4220253;28;20032;-75
2022/11/30 06:35:13;;;;;;;20.00;10.25;;;7.00;99.90;;;6.00;100.00;101746.59;4220362;28;20403;-75
2022/11/30 06:37:14;;;;;;;20.80;10.05;;;7.10;99.90;;;6.04;100.00;101751.50;4220561;28;20480;-75
2022/11/30 06:39:15;;;;;;;21.83;9.77;;;7.10;99.90;;;6.06;100.00;101751.44;4221380;28;20032;-74
2022/11/30 06:41:16;;;;;;;22.58;10.65;;;7.10;99.90;;;6.06;100.00;101746.19;4221616;28;20031;-75
2022/11/30 06:43:17;;;;;;;26.33;10.80;;;7.10;99.90;;;6.05;100.00;101745.34;4203414;28;20090;-75
2022/11/30 06:45:18;;;;;;;22.50;10.65;;;7.10;99.90;;;6.06;100.00;101754.03;4221383;28;20059;-75
2022/11/30 06:47:19;;;;;;;26.55;10.35;;;7.10;99.90;;;5.99;100.00;101756.22;4221297;28;20028;-75
2022/11/30 06:49:20;;;;;;;20.33;10.23;;;7.10;99.90;;;5.99;100.00;101747.53;4221214;28;20488;-75
2022/11/30 06:51:21;;;;;;;19.80;9.50;;;7.10;99.90;;;6.05;100.00;101761.06;4220218;28;20020;-75
2022/11/30 06:53:21;;;;;;;27.42;11.50;;;7.10;99.90;;;6.07;100.00;101753.94;4221445;28;20020;-75
2022/11/30 06:55:23;;;;;;;17.65;10.15;;;7.10;99.90;;;6.05;100.00;101750.59;4221177;28;20657;-75
2022/11/30 06:57:28;;;;;;;23.42;10.15;;;7.10;99.90;;;6.08;100.00;101755.63;4221140;28;20028;-75
2022/11/30 06:59:29;;;;;;;25.42;11.40;;;7.10;99.90;;;6.09;100.00;101759.09;4220110;28;20035;-75
2022/11/30 07:01:30;;;;;;;24.48;11.82;;;7.10;99.90;;;6.14;100.00;101764.84;4220137;28;20024;-75
2022/11/30 07:03:31;;;;;;;21.83;9.95;;;7.10;99.90;;;6.12;100.00;101764.13;4221087;28;20519;-75
2022/11/30 07:05:38;;;;;;;24.20;11.20;;;7.10;99.90;;;6.13;100.00;101752.69;4219768;28;20035;-75
2022/11/30 07:07:39;;;;;;;20.70;10.27;;;7.10;99.90;;;6.13;100.00;101752.69;4220026;28;20396;-75
2022/11/30 07:09:40;;;;;;;20.17;9.75;;;7.10;99.90;;;6.10;100.00;101760.75;4219900;28;20016;-75
2022/11/30 07:11:41;;;;;;;20.30;10.82;;;7.20;99.90;;;6.12;100.00;101766.72;4236678;28;20505;-75
2022/11/30 07:13:42;;;;;;;20.45;9.68;;;7.20;99.90;;;6.10;100.00;101760.75;4220859;28;20411;-74
2022/11/30 07:15:44;;;;;;;20.63;10.73;;;7.10;99.90;;;6.09;100.00;101756.47;4236519;28;20027;-75
2022/11/30 07:17:45;;;;;;;21.23;10.13;;;7.10;99.90;;;6.10;100.00;101758.13;4220196;28;20031;-75
2022/11/30 07:19:46;;;;;;;23.55;13.10;;;7.10;99.90;;;6.01;100.00;101759.56;4219516;28;20020;-75
2022/11/30 07:21:46;;;;;;;19.13;10.88;;;7.10;99.90;;;6.02;100.00;101749.94;4220618;28;20052;-75
2022/11/30 07:26:07;;;;;;;15.98;9.05;;;7.10;99.90;;;6.01;100.00;101766.59;4220838;28;20031;-75
2022/11/30 07:28:07;;;;;;;16.85;9.32;;;7.10;99.90;;;5.97;100.00;101765.13;4253539;27;20019;-75
2022/11/30 07:30:09;;;;;;;16.60;8.98;;;7.10;99.90;;;5.98;100.00;101766.78;4220885;28;20475;-75
2022/11/30 07:32:10;;;;;;;21.77;9.70;;;7.00;99.90;;;5.97;100.00;101759.91;4220317;28;20438;-74
2022/11/30 07:34:12;;;;;;;15.43;8.70;;;7.00;99.90;;;5.98;100.00;101767.63;4253068;27;20027;-75
2022/11/30 07:36:14;;;;;;;17.15;8.75;;;7.00;99.90;;;5.95;100.00;101764.38;4220550;28;20073;-74
2022/11/30 07:38:14;;;;;;;14.63;8.82;;;7.00;99.90;;;5.96;100.00;101766.06;4253635;27;20027;-74
2022/11/30 07:40:15;;;;;;;16.25;8.60;;;7.00;99.90;;;5.97;100.00;101767.75;4220849;28;20031;-75
2022/11/30 07:42:16;;;;;;;14.45;8.77;;;7.00;99.90;;;5.97;100.00;101767.75;4220910;28;20028;-74
2022/11/30 07:44:17;;;;;;;12.27;8.63;;;7.00;99.90;;;5.98;100.00;101769.41;4220496;28;20028;-74
2022/11/30 07:46:18;;;;;;;13.73;8.70;;;7.00;99.90;;;5.95;100.00;101769.59;4220692;28;20024;-75
2022/11/30 07:48:20;;;;;;;13.25;8.30;;;6.90;99.90;;;5.95;100.00;101764.38;4220472;28;20111;-74
2022/11/30 07:50:21;;;;;;;11.38;7.35;;;6.90;99.90;;;5.93;100.00;101776.75;4220554;28;20028;-74
2022/11/30 07:52:21;;;;;;;13.52;7.43;;;6.90;99.90;;;5.95;100.00;101772.22;4220278;28;20422;-75
2022/11/30 07:54:22;;;;;;;14.27;8.48;;;6.90;99.90;;;5.97;100.00;101767.75;4253164;27;20110;-74
2022/11/30 07:56:24;;;;;;;12.27;7.68;;;7.00;99.90;;;5.93;100.00;101761.88;4219133;28;20078;-75
2022/11/30 07:58:25;;;;;;;14.02;8.18;;;7.00;99.90;;;5.98;100.00;101772.03;4220118;28;20028;-75
2022/11/30 08:00:26;;;;;;;10.90;7.43;;;7.00;99.90;;;5.99;100.00;101774.56;4220189;28;20024;-75
2022/11/30 08:02:27;;;;;;;9.40;7.05;;;7.00;99.90;;;6.01;100.00;101774.44;4219208;28;20134;-75
2022/11/30 08:04:28;;;;;;;12.10;8.05;;;7.00;99.90;;;6.01;100.00;101774.44;4219997;28;20024;-75
2022/11/30 08:06:30;;;;;;;11.32;7.05;;;7.00;99.90;;;6.05;100.00;101781.16;4218927;28;20016;-75
2022/11/30 08:08:34;;;;;;;11.65;7.63;;;7.10;99.90;;;6.07;100.00;101781.91;4219965;28;20025;-75
2022/11/30 08:10:35;;;;;;;15.63;8.18;;;7.10;99.90;;;6.07;100.00;101774.03;4220281;28;20046;-74
2022/11/30 08:12:36;;;;;;;12.88;8.25;;;7.10;99.90;;;6.11;100.00;101780.75;4252884;27;20015;-75
2022/11/30 08:14:37;;;;;;;12.75;7.85;;;7.10;99.90;;;6.12;100.00;101777.22;4220110;28;20032;-75
2022/11/30 08:16:38;;;;;;;13.23;7.22;;;7.10;99.90;;;6.12;100.00;101783.25;4252675;27;20024;-74
2022/11/30 08:18:40;;;;;;;10.10;6.63;;;7.10;99.90;;;6.15;100.00;101782.25;4217716;28;20137;-74
2022/11/30 08:20:40;;;;;;;9.63;6.40;;;7.10;99.90;;;6.20;100.00;101780.16;4252774;27;20031;-75
2022/11/30 08:22:41;;;;;;;11.18;7.07;;;7.20;99.90;;;6.23;100.00;101779.09;4219849;28;20052;-74
2022/11/30 08:24:42;;;;;;;11.40;7.18;;;7.20;99.90;;;6.25;100.00;101771.97;4219673;28;20047;-75
2022/11/30 08:26:43;;;;;;;10.40;6.85;;;7.20;99.90;;;6.29;100.00;101779.53;4219998;28;20027;-75
2022/11/30 08:28:46;;;;;;;10.07;6.40;;;7.30;99.90;;;6.29;100.00;101778.69;4219878;28;20020;-75